Time;durP1;ratioP1;P1;durP2;ratioP2;P2;SDS_P1;SDS_P2;PMS_P1;PMS_P2;Temp;Humidity;BMP_temperature;BMP_pressure;BME280_temperature;BME280_humidity;BME280_pressure;Samples;Min_cycle;Max_cycle;Signal;HPM_P1;HPM_P2
2022/04/03 00:01:42;;;;;;;3.17;1.20;;;;;;;;;;143745;586;46020;-64
2022/04/03 00:04:09;;;;;;;1.00;0.65;;;;;;;;;;143742;564;46010;-63
2022/04/03 00:06:36;;;;;;;4.68;1.87;;;;;;;;;;143744;569;46019;-63
2022/04/03 00:09:04;;;;;;;7.90;2.10;;;;;;;;;;143743;585;46021;-64
2022/04/03 00:11:31;;;;;;;2.90;1.70;;;;;;;;;;143745;582;46020;-63
2022/04/03 00:13:58;;;;;;;3.70;1.90;;;;;;;;;;143739;594;49010;-63
2022/04/03 00:16:25;;;;;;;2.90;1.45;;;;;;;;;;143744;639;46027;-63
2022/04/03 00:18:52;;;;;;;2.30;1.23;;;;;;;;;;143746;569;46020;-63
2022/04/03 00:21:20;;;;;;;2.53;1.30;;;;;;;;;;143743;583;46022;-63
2022/04/03 00:23:48;;;;;;;1.52;0.93;;;;;;;;;;143741;660;46021;-63
2022/04/03 00:26:15;;;;;;;1.45;1.02;;;;;;;;;;143740;735;46020;-63
2022/04/03 00:28:42;;;;;;;3.65;1.62;;;;;;;;;;143746;647;46020;-64
2022/04/03 00:31:10;;;;;;;2.58;1.42;;;;;;;;;;143744;591;46020;-64
2022/04/03 00:33:37;;;;;;;3.20;1.80;;;;;;;;;;143741;572;46020;-64
2022/04/03 00:36:04;;;;;;;2.17;0.90;;;;;;;;;;143742;609;46020;-63
2022/04/03 00:38:31;;;;;;;1.62;0.90;;;;;;;;;;143743;624;46012;-63
2022/04/03 00:41:00;;;;;;;3.33;1.33;;;;;;;;;;143743;585;46022;-64
2022/04/03 00:43:27;;;;;;;1.25;1.12;;;;;;;;;;143742;652;46020;-63
2022/04/03 00:45:54;;;;;;;2.28;0.82;;;;;;;;;;143742;697;46021;-63
2022/04/03 00:48:22;;;;;;;1.35;0.80;;;;;;;;;;143745;560;46012;-63
2022/04/03 00:50:49;;;;;;;2.30;0.80;;;;;;;;;;143743;577;46020;-63
2022/04/03 00:53:16;;;;;;;3.72;0.93;;;;;;;;;;143742;569;46021;-64
2022/04/03 00:55:44;;;;;;;2.12;0.88;;;;;;;;;;143744;573;46018;-63
2022/04/03 00:58:11;;;;;;;0.98;0.77;;;;;;;;;;143746;580;46012;-63
2022/04/03 01:00:39;;;;;;;1.55;0.70;;;;;;;;;;143744;650;46022;-63
2022/04/03 01:03:06;;;;;;;0.52;0.45;;;;;;;;;;143742;575;46010;-64
2022/04/03 01:05:33;;;;;;;1.00;0.70;;;;;;;;;;143744;700;46018;-64
2022/04/03 01:08:01;;;;;;;0.93;0.90;;;;;;;;;;143746;581;46012;-63
2022/04/03 01:10:28;;;;;;;2.50;0.80;;;;;;;;;;143741;572;47020;-63
2022/04/03 01:12:55;;;;;;;0.47;0.45;;;;;;;;;;143742;571;46020;-64
2022/04/03 01:15:22;;;;;;;1.08;0.77;;;;;;;;;;143744;592;46018;-64
2022/04/03 01:17:49;;;;;;;2.45;0.98;;;;;;;;;;143745;670;46020;-63
2022/04/03 01:20:17;;;;;;;1.50;0.77;;;;;;;;;;143742;603;46022;-64
2022/04/03 01:22:44;;;;;;;2.35;1.33;;;;;;;;;;143741;626;46021;-64
2022/04/03 01:25:11;;;;;;;1.73;0.90;;;;;;;;;;143744;571;46018;-63
2022/04/03 01:27:39;;;;;;;2.12;1.23;;;;;;;;;;143746;569;46012;-63
2022/04/03 01:30:07;;;;;;;2.70;1.48;;;;;;;;;;143744;583;46021;-63
2022/04/03 01:32:34;;;;;;;2.62;0.75;;;;;;;;;;143742;586;46020;-63
2022/04/03 01:35:01;;;;;;;1.37;0.88;;;;;;;;;;143744;570;46018;-63
2022/04/03 01:37:28;;;;;;;3.05;1.35;;;;;;;;;;143745;592;46021;-64
2022/04/03 01:39:55;;;;;;;1.42;1.12;;;;;;;;;;143740;661;46039;-64
2022/04/03 01:42:22;;;;;;;2.28;1.48;;;;;;;;;;143742;582;46020;-64
2022/04/03 01:44:49;;;;;;;5.60;1.65;;;;;;;;;;143744;566;46018;-63
2022/04/03 01:47:17;;;;;;;5.07;1.52;;;;;;;;;;143746;564;46014;-64
2022/04/03 01:49:44;;;;;;;4.37;1.37;;;;;;;;;;143743;577;46020;-63
2022/04/03 01:52:11;;;;;;;3.87;1.48;;;;;;;;;;143742;646;46013;-63
2022/04/03 01:54:38;;;;;;;2.25;1.10;;;;;;;;;;143742;598;46020;-63
2022/04/03 01:57:05;;;;;;;2.25;1.30;;;;;;;;;;143743;572;46020;-63
2022/04/03 01:59:32;;;;;;;1.95;1.17;;;;;;;;;;143746;590;46021;-63
2022/04/03 02:01:59;;;;;;;1.50;1.10;;;;;;;;;;143741;586;46915;-63
2022/04/03 02:04:26;;;;;;;1.90;1.50;;;;;;;;;;143744;563;46018;-63
2022/04/03 02:06:53;;;;;;;1.12;0.95;;;;;;;;;;143746;570;46014;-63
2022/04/03 02:09:20;;;;;;;2.00;1.10;;;;;;;;;;143744;592;46020;-63
2022/04/03 02:11:47;;;;;;;1.77;1.15;;;;;;;;;;143741;565;46916;-63
2022/04/03 02:14:14;;;;;;;2.67;1.23;;;;;;;;;;143742;589;46021;-63
2022/04/03 02:16:41;;;;;;;7.10;2.08;;;;;;;;;;143744;587;46014;-64
2022/04/03 02:19:09;;;;;;;3.53;1.85;;;;;;;;;;143745;578;46043;-64
2022/04/03 02:21:36;;;;;;;1.37;1.12;;;;;;;;;;143742;584;46021;-63
2022/04/03 02:24:03;;;;;;;1.45;1.20;;;;;;;;;;143742;574;46020;-63
2022/04/03 02:26:29;;;;;;;1.25;1.15;;;;;;;;;;143747;643;46014;-63
2022/04/03 02:28:57;;;;;;;1.65;1.05;;;;;;;;;;143745;565;47021;-64
2022/04/03 02:31:24;;;;;;;4.03;1.60;;;;;;;;;;143739;745;48020;-63
2022/04/03 02:33:51;;;;;;;2.97;2.10;;;;;;;;;;143742;563;46020;-63
2022/04/03 02:36:18;;;;;;;4.00;1.65;;;;;;;;;;143743;583;46014;-63
2022/04/03 02:38:45;;;;;;;3.05;1.73;;;;;;;;;;143743;574;46020;-63
2022/04/03 02:41:12;;;;;;;3.45;2.28;;;;;;;;;;143742;559;46020;-63
2022/04/03 02:43:39;;;;;;;6.72;2.92;;;;;;;;;;143742;573;46021;-63
2022/04/03 02:46:06;;;;;;;5.70;2.45;;;;;;;;;;143745;658;46020;-64
2022/04/03 02:48:34;;;;;;;5.15;2.30;;;;;;;;;;143742;571;46022;-63
2022/04/03 02:51:01;;;;;;;6.10;2.03;;;;;;;;;;143741;715;46020;-64
2022/04/03 02:53:29;;;;;;;4.35;2.42;;;;;;;;;;143741;583;46020;-63
2022/04/03 02:55:56;;;;;;;7.07;2.78;;;;;;;;;;143744;570;46014;-63
2022/04/03 02:58:23;;;;;;;5.10;2.40;;;;;;;;;;143743;571;46021;-63
2022/04/03 03:00:50;;;;;;;4.62;2.40;;;;;;;;;;143740;695;46021;-64
2022/04/03 03:03:17;;;;;;;2.20;1.60;;;;;;;;;;143739;653;46020;-64
2022/04/03 03:05:45;;;;;;;4.65;2.58;;;;;;;;;;143743;583;46015;-64
2022/04/03 03:08:12;;;;;;;4.62;2.60;;;;;;;;;;143742;574;46020;-63
2022/04/03 03:10:39;;;;;;;3.90;2.42;;;;;;;;;;143740;564;46020;-63
2022/04/03 03:13:06;;;;;;;6.18;1.87;;;;;;;;;;143742;578;46019;-63
2022/04/03 03:15:33;;;;;;;5.78;2.28;;;;;;;;;;143742;592;46014;-63
2022/04/03 03:18:00;;;;;;;4.68;2.40;;;;;;;;;;143743;685;46020;-64
2022/04/03 03:20:27;;;;;;;6.60;2.37;;;;;;;;;;143740;698;46020;-63
2022/04/03 03:22:54;;;;;;;7.95;2.37;;;;;;;;;;143740;601;46021;-63
2022/04/03 03:25:21;;;;;;;5.15;3.20;;;;;;;;;;143743;587;46020;-63
2022/04/03 03:27:48;;;;;;;5.40;2.62;;;;;;;;;;143740;599;46022;-64
2022/04/03 03:30:15;;;;;;;4.65;2.30;;;;;;;;;;143740;639;46021;-63
2022/04/03 03:32:42;;;;;;;6.35;2.85;;;;;;;;;;143742;590;46018;-64
2022/04/03 03:35:10;;;;;;;8.27;2.40;;;;;;;;;;143746;714;46020;-63
2022/04/03 03:37:38;;;;;;;7.85;2.05;;;;;;;;;;143741;664;46023;-63
2022/04/03 03:40:06;;;;;;;4.93;2.17;;;;;;;;;;143739;661;46020;-64
2022/04/03 03:42:34;;;;;;;11.10;2.87;;;;;;;;;;143741;564;46020;-64
2022/04/03 03:45:01;;;;;;;2.50;1.77;;;;;;;;;;143746;595;46021;-64
2022/04/03 03:47:28;;;;;;;2.87;1.87;;;;;;;;;;143740;579;46022;-63
2022/04/03 03:49:55;;;;;;;4.53;2.60;;;;;;;;;;143740;615;46020;-63
2022/04/03 03:52:22;;;;;;;2.33;1.35;;;;;;;;;;143743;678;46012;-63
2022/04/03 03:54:50;;;;;;;2.58;1.08;;;;;;;;;;143745;583;46020;-63
2022/04/03 03:57:17;;;;;;;1.92;1.33;;;;;;;;;;143742;580;46022;-63
2022/04/03 03:59:44;;;;;;;3.80;1.62;;;;;;;;;;143740;564;46013;-63
2022/04/03 04:02:11;;;;;;;2.22;1.65;;;;;;;;;;143740;579;46020;-63
2022/04/03 04:04:38;;;;;;;4.07;2.10;;;;;;;;;;143742;637;46014;-63
2022/04/03 04:07:05;;;;;;;3.97;1.17;;;;;;;;;;143741;581;46023;-63
2022/04/03 04:09:32;;;;;;;2.15;1.25;;;;;;;;;;143740;611;46012;-63
2022/04/03 04:11:59;;;;;;;3.40;1.67;;;;;;;;;;143741;579;46020;-63
2022/04/03 04:14:26;;;;;;;2.30;1.20;;;;;;;;;;143742;729;46021;-64
2022/04/03 04:16:53;;;;;;;2.72;1.85;;;;;;;;;;143742;606;46022;-63
2022/04/03 04:19:20;;;;;;;2.33;1.70;;;;;;;;;;143741;684;46020;-63
2022/04/03 04:21:47;;;;;;;3.15;2.03;;;;;;;;;;143739;576;46021;-64
2022/04/03 04:24:14;;;;;;;5.15;2.15;;;;;;;;;;143742;573;46014;-63
2022/04/03 04:26:42;;;;;;;5.12;2.33;;;;;;;;;;143740;572;46022;-64
2022/04/03 04:29:09;;;;;;;1.73;1.42;;;;;;;;;;143740;564;46021;-63
2022/04/03 04:31:36;;;;;;;4.50;2.05;;;;;;;;;;143742;586;46018;-63
2022/04/03 04:34:03;;;;;;;5.03;1.77;;;;;;;;;;143743;577;46020;-63
2022/04/03 04:36:30;;;;;;;4.10;2.17;;;;;;;;;;143741;637;46023;-64
2022/04/03 04:38:57;;;;;;;5.62;2.97;;;;;;;;;;143740;589;46020;-64
2022/04/03 04:41:24;;;;;;;5.30;3.08;;;;;;;;;;143740;633;46020;-63
2022/04/03 04:43:51;;;;;;;7.97;3.10;;;;;;;;;;143742;570;46014;-64
2022/04/03 04:46:18;;;;;;;5.70;2.40;;;;;;;;;;143741;570;46023;-64
2022/04/03 04:48:45;;;;;;;8.00;3.10;;;;;;;;;;143740;589;46020;-64
2022/04/03 04:51:12;;;;;;;6.22;2.40;;;;;;;;;;143742;591;46018;-64
2022/04/03 04:53:39;;;;;;;6.68;2.50;;;;;;;;;;143742;589;46020;-65
2022/04/03 04:56:06;;;;;;;7.72;2.72;;;;;;;;;;143743;563;46020;-64
2022/04/03 04:58:33;;;;;;;5.60;2.33;;;;;;;;;;143740;625;46013;-64
2022/04/03 05:01:00;;;;;;;6.57;2.85;;;;;;;;;;143742;570;46018;-64
2022/04/03 05:03:27;;;;;;;6.45;2.83;;;;;;;;;;143743;733;46020;-64
2022/04/03 05:05:55;;;;;;;4.87;2.37;;;;;;;;;;143740;652;47021;-63
2022/04/03 05:08:22;;;;;;;6.62;2.85;;;;;;;;;;143739;738;46020;-63
2022/04/03 05:10:50;;;;;;;5.05;2.42;;;;;;;;;;143740;569;46020;-63
2022/04/03 05:13:17;;;;;;;5.65;2.47;;;;;;;;;;143744;586;46020;-64
2022/04/03 05:15:44;;;;;;;6.57;2.20;;;;;;;;;;143741;564;46014;-64
2022/04/03 05:18:11;;;;;;;3.05;1.65;;;;;;;;;;143740;582;46020;-63
2022/04/03 05:20:38;;;;;;;3.83;2.25;;;;;;;;;;143741;618;46018;-64
2022/04/03 05:23:05;;;;;;;6.25;2.10;;;;;;;;;;143744;617;46007;-63
2022/04/03 05:25:32;;;;;;;3.40;1.70;;;;;;;;;;143742;571;46044;-63
2022/04/03 05:27:59;;;;;;;3.20;1.73;;;;;;;;;;143739;598;46020;-63
2022/04/03 05:30:26;;;;;;;2.85;1.87;;;;;;;;;;143740;615;46020;-63
2022/04/03 05:32:53;;;;;;;4.70;1.83;;;;;;;;;;143744;638;46014;-63
2022/04/03 05:35:20;;;;;;;3.92;1.90;;;;;;;;;;143741;658;46022;-63
2022/04/03 05:37:47;;;;;;;3.58;2.30;;;;;;;;;;143740;570;46012;-63
2022/04/03 05:40:15;;;;;;;8.13;3.20;;;;;;;;;;143742;712;46018;-63
2022/04/03 05:42:42;;;;;;;5.07;2.05;;;;;;;;;;143742;599;46020;-63
2022/04/03 05:45:10;;;;;;;4.18;1.52;;;;;;;;;;143743;591;46020;-63
2022/04/03 05:47:37;;;;;;;4.30;2.33;;;;;;;;;;143740;722;46020;-63
2022/04/03 05:50:05;;;;;;;4.07;2.08;;;;;;;;;;143740;588;46021;-64
2022/04/03 05:52:52;;;;;;;6.05;1.85;;;;;;;;;;143745;570;46014;-63
2022/04/03 05:55:20;;;;;;;4.60;2.15;;;;;;;;;;143742;589;46020;-64
2022/04/03 05:57:49;;;;;;;4.97;2.15;;;;;;;;;;143740;586;46013;-63
2022/04/03 06:00:18;;;;;;;7.10;2.67;;;;;;;;;;143742;577;46018;-63
2022/04/03 06:02:49;;;;;;;6.03;2.15;;;;;;;;;;143744;571;46014;-63
2022/04/03 06:05:19;;;;;;;5.20;1.95;;;;;;;;;;143742;620;46021;-63
2022/04/03 06:07:46;;;;;;;2.35;1.73;;;;;;;;;;143739;577;46915;-63
2022/04/03 06:10:14;;;;;;;4.25;2.25;;;;;;;;;;143743;569;46012;-64
2022/04/03 06:12:58;;;;;;;4.97;2.20;;;;;;;;;;143743;564;46021;-64
2022/04/03 06:15:28;;;;;;;9.20;1.63;;;;;;;;;;143741;576;46020;-64
2022/04/03 06:17:55;;;;;;;4.20;1.50;;;;;;;;;;143740;584;46020;-64
2022/04/03 06:20:23;;;;;;;5.00;1.98;;;;;;;;;;143739;622;46021;-65
2022/04/03 06:22:50;;;;;;;3.65;1.70;;;;;;;;;;143739;566;46020;-63
2022/04/03 06:25:17;;;;;;;2.20;1.90;;;;;;;;;;143742;625;46020;-64
2022/04/03 06:27:44;;;;;;;5.65;1.90;;;;;;;;;;143739;588;46043;-64
2022/04/03 06:30:11;;;;;;;2.67;1.58;;;;;;;;;;143740;864;46018;-64
2022/04/03 06:32:38;;;;;;;3.40;1.73;;;;;;;;;;143743;569;46014;-63
2022/04/03 06:35:06;;;;;;;6.40;2.60;;;;;;;;;;143741;582;46019;-63
2022/04/03 06:37:34;;;;;;;6.20;1.92;;;;;;;;;;143740;610;46022;-64
2022/04/03 06:40:01;;;;;;;5.05;1.98;;;;;;;;;;143740;614;46018;-64
2022/04/03 06:42:30;;;;;;;8.18;1.90;;;;;;;;;;143743;614;46014;-65
2022/04/03 06:44:58;;;;;;;4.80;2.15;;;;;;;;;;143741;580;46020;-65
2022/04/03 06:47:25;;;;;;;5.78;2.00;;;;;;;;;;143738;616;46022;-64
2022/04/03 06:49:52;;;;;;;7.68;1.80;;;;;;;;;;143740;569;46019;-63
2022/04/03 06:52:19;;;;;;;4.30;1.30;;;;;;;;;;143742;591;46014;-64
2022/04/03 06:54:46;;;;;;;3.95;1.75;;;;;;;;;;143742;584;46018;-64
2022/04/03 06:57:14;;;;;;;5.47;1.73;;;;;;;;;;143739;614;47012;-65
2022/04/03 06:59:42;;;;;;;3.28;1.50;;;;;;;;;;143741;617;46018;-65
2022/04/03 07:02:09;;;;;;;3.97;1.48;;;;;;;;;;143744;564;46022;-65
2022/04/03 07:04:37;;;;;;;3.25;1.70;;;;;;;;;;143741;590;46020;-64
2022/04/03 07:07:04;;;;;;;4.82;1.55;;;;;;;;;;143740;589;46022;-64
2022/04/03 07:09:31;;;;;;;4.25;1.73;;;;;;;;;;143738;625;46018;-64
2022/04/03 07:11:58;;;;;;;8.02;2.08;;;;;;;;;;143744;586;46023;-64
2022/04/03 07:14:25;;;;;;;4.03;1.67;;;;;;;;;;143741;627;46018;-64
2022/04/03 07:16:52;;;;;;;3.35;1.52;;;;;;;;;;143740;591;46022;-65
2022/04/03 07:19:19;;;;;;;2.80;1.37;;;;;;;;;;143739;619;46019;-65
2022/04/03 07:21:46;;;;;;;2.47;1.37;;;;;;;;;;143743;594;46014;-65
2022/04/03 07:24:13;;;;;;;4.20;1.60;;;;;;;;;;143740;659;46020;-66
2022/04/03 07:26:40;;;;;;;6.30;1.75;;;;;;;;;;143739;611;46022;-65
2022/04/03 07:29:07;;;;;;;2.92;1.27;;;;;;;;;;143742;728;46016;-65
2022/04/03 07:31:35;;;;;;;3.90;1.42;;;;;;;;;;143741;639;46014;-66
2022/04/03 07:34:02;;;;;;;1.30;1.10;;;;;;;;;;143740;603;46033;-65
2022/04/03 07:36:30;;;;;;;4.03;1.05;;;;;;;;;;143739;594;47012;-66
2022/04/03 07:38:57;;;;;;;4.65;1.35;;;;;;;;;;143743;633;46016;-65
2022/04/03 07:41:24;;;;;;;6.95;1.67;;;;;;;;;;143744;735;46022;-66
2022/04/03 07:43:51;;;;;;;3.35;1.23;;;;;;;;;;143742;566;46021;-65
2022/04/03 07:46:18;;;;;;;2.12;1.27;;;;;;;;;;143740;621;46010;-67
2022/04/03 07:48:45;;;;;;;2.12;0.98;;;;;;;;;;143739;728;46018;-65
2022/04/03 07:51:12;;;;;;;4.87;0.90;;;;;;;;;;143742;594;46012;-65
2022/04/03 07:53:40;;;;;;;2.10;0.85;;;;;;;;;;143741;593;46018;-65
2022/04/03 07:56:07;;;;;;;2.22;0.73;;;;;;;;;;143740;655;46022;-65
2022/04/03 07:58:35;;;;;;;2.05;1.48;;;;;;;;;;143740;591;46018;-65
2022/04/03 08:01:03;;;;;;;3.00;1.05;;;;;;;;;;143744;695;46022;-66
2022/04/03 08:03:30;;;;;;;2.50;1.05;;;;;;;;;;143743;760;46019;-65
2022/04/03 08:05:57;;;;;;;10.57;1.80;;;;;;;;;;143739;869;46023;-65
2022/04/03 08:08:25;;;;;;;5.85;1.42;;;;;;;;;;143740;670;47018;-66
2022/04/03 08:10:52;;;;;;;3.30;1.33;;;;;;;;;;143740;831;46023;-65
2022/04/03 08:13:20;;;;;;;4.45;2.25;;;;;;;;;;143743;607;46018;-66
2022/04/03 08:28:17;;;;;;;3.33;1.30;;;;;;;;;;143780;565;47020;-60
2022/04/03 08:30:44;;;;;;;4.72;1.55;;;;;;;;;;143737;571;46020;-60
2022/04/03 08:33:12;;;;;;;4.43;1.23;;;;;;;;;;143731;600;47023;-60
2022/04/03 08:35:40;;;;;;;4.93;1.27;;;;;;;;;;143733;677;46010;-60
2022/04/03 08:38:10;;;;;;;3.65;1.70;;;;;;;;;;143733;605;46020;-59
2022/04/03 08:40:38;;;;;;;3.42;1.60;;;;;;;;;;143735;593;46021;-60
2022/04/03 08:43:05;;;;;;;3.35;1.80;;;;;;;;;;143732;755;47020;-60
2022/04/03 08:45:33;;;;;;;2.05;1.15;;;;;;;;;;143733;753;46010;-60
2022/04/03 08:48:01;;;;;;;4.90;1.70;;;;;;;;;;143731;589;46021;-59
2022/04/03 08:50:37;;;;;;;1.98;1.15;;;;;;;;;;143733;589;46020;-60
2022/04/03 08:53:06;;;;;;;3.05;1.52;;;;;;;;;;143731;611;47022;-59
2022/04/03 08:55:34;;;;;;;2.30;1.25;;;;;;;;;;143732;607;47010;-59
2022/04/03 08:58:02;;;;;;;7.00;1.42;;;;;;;;;;143734;597;46020;-59
2022/04/03 09:00:31;;;;;;;4.53;1.73;;;;;;;;;;143736;580;46020;-59
2022/04/03 09:02:59;;;;;;;3.03;1.20;;;;;;;;;;143732;583;47020;-59
2022/04/03 09:05:36;;;;;;;3.78;1.27;;;;;;;;;;143732;583;47010;-59
2022/04/03 09:08:04;;;;;;;2.50;1.10;;;;;;;;;;143732;604;46021;-59
2022/04/03 09:10:31;;;;;;;4.97;1.85;;;;;;;;;;143737;571;46020;-60
2022/04/03 09:12:58;;;;;;;4.87;1.62;;;;;;;;;;143732;571;47020;-60
2022/04/03 09:15:27;;;;;;;20.33;2.12;;;;;;;;;;143729;576;47011;-60
2022/04/03 09:17:59;;;;;;;6.15;2.20;;;;;;;;;;143732;618;46020;-60
2022/04/03 09:20:36;;;;;;;3.75;1.75;;;;;;;;;;143732;637;46020;-60
2022/04/03 09:23:05;;;;;;;2.00;1.02;;;;;;;;;;143731;622;47021;-60
2022/04/03 09:25:34;;;;;;;4.10;1.60;;;;;;;;;;143732;636;46020;-61
2022/04/03 09:28:08;;;;;;;4.15;1.62;;;;;;;;;;143732;687;46020;-60
2022/04/03 09:30:42;;;;;;;3.25;1.25;;;;;;;;;;143735;595;46020;-59
2022/04/03 09:33:12;;;;;;;5.80;1.45;;;;;;;;;;143731;582;47023;-60
2022/04/03 09:35:58;;;;;;;2.45;1.30;;;;;;;;;;143732;575;47010;-60
2022/04/03 09:38:28;;;;;;;3.30;1.70;;;;;;;;;;143732;718;46022;-60
2022/04/03 09:40:57;;;;;;;8.02;1.83;;;;;;;;;;143734;609;46020;-60
2022/04/03 09:43:38;;;;;;;3.62;1.45;;;;;;;;;;143731;589;47022;-61
2022/04/03 09:46:07;;;;;;;4.60;1.23;;;;;;;;;;143732;608;47010;-61
2022/04/03 09:48:45;;;;;;;4.72;1.37;;;;;;;;;;143731;693;46020;-61
2022/04/03 09:51:22;;;;;;;4.37;1.95;;;;;;;;;;143736;598;46020;-61
2022/04/03 09:54:00;;;;;;;4.35;1.65;;;;;;;;;;143731;587;47022;-61
2022/04/03 09:56:33;;;;;;;2.72;1.40;;;;;;;;;;143731;588;47010;-60
2022/04/03 09:59:06;;;;;;;2.42;1.30;;;;;;;;;;143731;585;46020;-60
2022/04/03 10:01:35;;;;;;;3.12;1.50;;;;;;;;;;143734;592;46035;-61
2022/04/03 10:04:04;;;;;;;5.15;1.42;;;;;;;;;;143731;572;47049;-60
2022/04/03 10:06:32;;;;;;;3.40;1.90;;;;;;;;;;143732;634;47012;-60
2022/04/03 10:08:59;;;;;;;4.40;2.20;;;;;;;;;;143734;606;46021;-60
2022/04/03 10:11:29;;;;;;;3.50;1.62;;;;;;;;;;143734;573;46020;-60
2022/04/03 10:13:56;;;;;;;3.60;1.65;;;;;;;;;;143732;570;47020;-60
2022/04/03 10:16:24;;;;;;;4.70;1.62;;;;;;;;;;143732;592;47012;-60
2022/04/03 10:18:51;;;;;;;4.05;1.48;;;;;;;;;;143732;629;46020;-60
2022/04/03 10:21:31;;;;;;;1.45;1.02;;;;;;;;;;143735;609;46020;-60
2022/04/03 10:24:16;;;;;;;2.20;1.23;;;;;;;;;;143733;588;47020;-60
2022/04/03 10:26:44;;;;;;;;;;;;;;;;;;143738;976;46030;-60
2022/04/03 10:29:12;;;;;;;3.30;0.95;;;;;;;;;;143740;607;46020;-60
2022/04/03 10:31:40;;;;;;;6.57;1.27;;;;;;;;;;143737;569;46021;-60
2022/04/03 10:34:11;;;;;;;3.20;1.02;;;;;;;;;;143732;580;47020;-60
2022/04/03 10:36:39;;;;;;;2.15;0.88;;;;;;;;;;143732;590;47013;-60
2022/04/03 10:39:08;;;;;;;4.55;2.00;;;;;;;;;;143733;594;46021;-60
2022/04/03 10:41:37;;;;;;;7.55;1.10;;;;;;;;;;143735;566;46020;-61
2022/04/03 10:44:29;;;;;;;1.80;1.17;;;;;;;;;;143733;592;47028;-60
2022/04/03 10:47:24;;;;;;;3.25;1.42;;;;;;;;;;143731;571;47012;-60
2022/04/03 10:49:59;;;;;;;;;;;;;;;;;;143737;982;46022;-60
2022/04/03 10:52:56;;;;;;;3.17;1.33;;;;;;;;;;143740;578;46020;-61
2022/04/03 10:55:28;;;;;;;2.33;1.48;;;;;;;;;;143731;601;47024;-61
2022/04/03 10:58:06;;;;;;;3.17;1.25;;;;;;;;;;143731;599;47012;-61
2022/04/03 11:00:38;;;;;;;1.25;1.10;;;;;;;;;;143733;575;46020;-61
2022/04/03 11:03:36;;;;;;;3.00;1.20;;;;;;;;;;143735;590;46020;-61
2022/04/03 11:06:23;;;;;;;3.03;1.10;;;;;;;;;;143732;626;47024;-61
2022/04/03 11:09:04;;;;;;;2.67;0.93;;;;;;;;;;143732;693;47012;-61
2022/04/03 11:11:43;;;;;;;2.17;0.95;;;;;;;;;;143734;598;46020;-60
2022/04/03 11:14:12;;;;;;;2.50;1.10;;;;;;;;;;143734;566;47011;-61
2022/04/03 11:16:55;;;;;;;2.70;0.95;;;;;;;;;;143731;571;47023;-61
2022/04/03 11:19:47;;;;;;;2.15;0.93;;;;;;;;;;143729;644;47012;-60
2022/04/03 11:22:18;;;;;;;1.85;0.80;;;;;;;;;;143733;575;46022;-61
2022/04/03 11:24:45;;;;;;;4.03;0.82;;;;;;;;;;143734;622;47020;-61
2022/04/03 11:27:13;;;;;;;3.53;1.62;;;;;;;;;;143732;596;47020;-61
2022/04/03 11:29:39;;;;;;;5.15;1.25;;;;;;;;;;143731;573;47012;-61
2022/04/03 11:32:08;;;;;;;3.35;1.48;;;;;;;;;;143732;570;46021;-61
2022/04/03 11:34:36;;;;;;;3.80;1.27;;;;;;;;;;143734;576;47010;-61
2022/04/03 11:37:05;;;;;;;2.00;0.90;;;;;;;;;;143732;580;47021;-61
2022/04/03 11:39:34;;;;;;;2.20;1.20;;;;;;;;;;143730;637;47030;-61
2022/04/03 11:42:06;;;;;;;3.25;1.27;;;;;;;;;;143733;574;46020;-60
2022/04/03 11:44:34;;;;;;;3.78;1.27;;;;;;;;;;143737;626;46020;-61
2022/04/03 11:47:02;;;;;;;2.80;1.37;;;;;;;;;;143731;610;47020;-60
2022/04/03 11:49:31;;;;;;;1.55;0.98;;;;;;;;;;143730;638;47012;-61
2022/04/03 11:52:09;;;;;;;3.17;1.42;;;;;;;;;;143733;581;46020;-61
2022/04/03 11:54:37;;;;;;;4.30;1.45;;;;;;;;;;143735;603;46021;-61
2022/04/03 11:57:08;;;;;;;9.07;1.25;;;;;;;;;;143731;579;47020;-61
2022/04/03 11:59:36;;;;;;;3.42;1.67;;;;;;;;;;143732;573;47012;-61
2022/04/03 12:02:17;;;;;;;3.80;1.15;;;;;;;;;;143733;669;46021;-60
2022/04/03 12:04:45;;;;;;;3.60;1.85;;;;;;;;;;143736;612;46020;-61
2022/04/03 12:07:16;;;;;;;1.87;1.15;;;;;;;;;;143731;626;47022;-61
2022/04/03 12:09:46;;;;;;;3.05;1.05;;;;;;;;;;143732;675;47012;-61
2022/04/03 12:12:13;;;;;;;6.40;1.67;;;;;;;;;;143730;630;46035;-61
2022/04/03 12:14:42;;;;;;;5.12;2.15;;;;;;;;;;143737;591;46022;-61
2022/04/03 12:17:11;;;;;;;3.80;1.10;;;;;;;;;;143731;570;47021;-61
2022/04/03 12:19:44;;;;;;;2.78;1.10;;;;;;;;;;143734;653;46030;-61
2022/04/03 12:22:19;;;;;;;2.75;1.10;;;;;;;;;;143733;607;46018;-61
2022/04/03 12:24:48;;;;;;;2.60;1.30;;;;;;;;;;143731;571;47014;-61
2022/04/03 12:27:25;;;;;;;4.35;1.45;;;;;;;;;;143731;579;47020;-60
2022/04/03 12:29:54;;;;;;;3.75;2.00;;;;;;;;;;143733;571;47012;-61
2022/04/03 12:32:39;;;;;;;3.60;1.30;;;;;;;;;;143732;591;46018;-61
2022/04/03 12:35:08;;;;;;;4.00;1.25;;;;;;;;;;143736;581;46022;-61
2022/04/03 12:37:42;;;;;;;6.20;1.45;;;;;;;;;;143731;586;47019;-61
2022/04/03 12:40:11;;;;;;;4.47;1.48;;;;;;;;;;143733;750;47012;-61
2022/04/03 12:42:43;;;;;;;2.28;1.12;;;;;;;;;;143731;563;46018;-61
2022/04/03 12:45:24;;;;;;;7.87;1.95;;;;;;;;;;143735;575;46022;-61
2022/04/03 12:48:00;;;;;;;2.75;0.98;;;;;;;;;;143731;578;47020;-61
2022/04/03 12:50:46;;;;;;;2.08;1.33;;;;;;;;;;143729;589;47012;-61
2022/04/03 12:53:15;;;;;;;2.35;0.88;;;;;;;;;;143732;596;46019;-61
2022/04/03 12:55:51;;;;;;;6.10;1.98;;;;;;;;;;143733;578;47010;-61
2022/04/03 12:58:26;;;;;;;1.60;0.70;;;;;;;;;;143731;572;47020;-61
2022/04/03 13:01:02;;;;;;;3.10;1.12;;;;;;;;;;143731;586;47012;-61
2022/04/03 13:03:46;;;;;;;4.15;1.87;;;;;;;;;;143731;574;46018;-61
2022/04/03 13:06:35;;;;;;;2.12;1.10;;;;;;;;;;143733;588;47022;-61
2022/04/03 13:09:07;;;;;;;4.20;1.52;;;;;;;;;;143731;750;47021;-61
2022/04/03 13:11:43;;;;;;;3.37;1.33;;;;;;;;;;143729;587;47012;-61
2022/04/03 13:14:42;;;;;;;3.00;1.45;;;;;;;;;;143732;583;46018;-61
2022/04/03 13:17:09;;;;;;;4.10;1.35;;;;;;;;;;143735;586;46024;-61
2022/04/03 13:19:36;;;;;;;3.53;1.40;;;;;;;;;;143733;570;47018;-61
2022/04/03 13:22:04;;;;;;;4.18;1.60;;;;;;;;;;143733;588;46023;-61
2022/04/03 13:24:32;;;;;;;4.10;1.80;;;;;;;;;;143732;611;46018;-61
2022/04/03 13:27:00;;;;;;;2.55;1.00;;;;;;;;;;143734;574;46038;-61
2022/04/03 13:29:28;;;;;;;4.55;0.93;;;;;;;;;;143731;607;47022;-60
2022/04/03 13:31:58;;;;;;;3.37;1.10;;;;;;;;;;143732;582;47012;-60
2022/04/03 13:34:25;;;;;;;3.40;1.45;;;;;;;;;;143732;586;46020;-60
2022/04/03 13:36:52;;;;;;;14.70;2.97;;;;;;;;;;143734;607;46020;-61
2022/04/03 13:39:19;;;;;;;2.35;0.95;;;;;;;;;;143732;567;47023;-60
2022/04/03 13:41:48;;;;;;;3.97;1.42;;;;;;;;;;143732;594;46025;-61
2022/04/03 13:44:18;;;;;;;4.80;1.60;;;;;;;;;;143732;617;46020;-60
2022/04/03 13:46:45;;;;;;;3.72;1.55;;;;;;;;;;143735;573;46020;-60
2022/04/03 13:49:13;;;;;;;4.25;2.00;;;;;;;;;;143733;588;47020;-61
2022/04/03 13:51:41;;;;;;;7.22;1.85;;;;;;;;;;143732;599;47013;-60
2022/04/03 13:54:09;;;;;;;2.37;1.23;;;;;;;;;;143733;597;46020;-61
2022/04/03 13:56:36;;;;;;;4.40;1.15;;;;;;;;;;143735;574;46020;-60
2022/04/03 13:59:03;;;;;;;3.40;1.35;;;;;;;;;;143733;615;47022;-60
2022/04/03 14:01:30;;;;;;;6.82;1.77;;;;;;;;;;143732;592;47012;-60
2022/04/03 14:03:57;;;;;;;3.75;1.27;;;;;;;;;;143732;590;46020;-61
2022/04/03 14:06:24;;;;;;;3.08;1.37;;;;;;;;;;143736;569;46020;-61
2022/04/03 14:08:51;;;;;;;5.87;1.23;;;;;;;;;;143733;571;47020;-61
2022/04/03 14:11:20;;;;;;;3.47;1.33;;;;;;;;;;143731;572;47012;-60
2022/04/03 14:13:47;;;;;;;4.43;1.58;;;;;;;;;;143732;598;46020;-60
2022/04/03 14:16:14;;;;;;;5.53;1.90;;;;;;;;;;143734;598;47010;-61
2022/04/03 14:18:42;;;;;;;5.68;1.75;;;;;;;;;;143732;595;47022;-60
2022/04/03 14:21:09;;;;;;;4.22;2.22;;;;;;;;;;143730;627;47012;-61
2022/04/03 14:23:36;;;;;;;4.05;1.52;;;;;;;;;;143733;592;46021;-61
2022/04/03 14:26:05;;;;;;;6.85;1.20;;;;;;;;;;143734;579;46020;-60
2022/04/03 14:28:33;;;;;;;2.85;1.17;;;;;;;;;;143732;589;47021;-61
2022/04/03 14:31:01;;;;;;;4.18;1.80;;;;;;;;;;143732;569;47012;-60
2022/04/03 14:33:28;;;;;;;3.87;1.52;;;;;;;;;;143732;613;46020;-60
2022/04/03 14:35:56;;;;;;;5.07;1.40;;;;;;;;;;143735;598;46020;-60
2022/04/03 14:38:26;;;;;;;3.67;2.17;;;;;;;;;;143731;564;47023;-60
2022/04/03 14:40:54;;;;;;;2.87;1.25;;;;;;;;;;143734;589;47010;-61
2022/04/03 14:43:21;;;;;;;6.18;1.35;;;;;;;;;;143733;602;46020;-60
2022/04/03 14:45:49;;;;;;;6.82;2.37;;;;;;;;;;143737;565;46021;-60
2022/04/03 14:48:16;;;;;;;2.75;1.35;;;;;;;;;;143733;564;47022;-60
2022/04/03 14:50:44;;;;;;;5.20;1.80;;;;;;;;;;143734;621;47010;-61
2022/04/03 14:53:14;;;;;;;5.03;1.83;;;;;;;;;;143733;666;46021;-61
2022/04/03 14:55:43;;;;;;;4.40;1.83;;;;;;;;;;143737;585;46020;-61
2022/04/03 14:58:10;;;;;;;3.40;1.45;;;;;;;;;;143733;581;47022;-61
2022/04/03 15:00:37;;;;;;;6.40;2.10;;;;;;;;;;143730;579;47010;-61
2022/04/03 15:03:04;;;;;;;4.72;1.95;;;;;;;;;;143733;847;46020;-61
2022/04/03 15:05:32;;;;;;;5.60;2.15;;;;;;;;;;143734;624;46021;-61
2022/04/03 15:07:59;;;;;;;5.62;1.52;;;;;;;;;;143733;606;47020;-61